sensor_id;sensor_type;location;lat;lon;timestamp;pressure;altitude;pressure_sealevel;temperature;humidity
54122;BME280;40029;58.708;50.190;2022-09-09T00:02:24;100112.41;;;7.44;53.97
54122;BME280;40029;58.708;50.190;2022-09-09T00:05:12;100110.00;;;7.34;54.07
54122;BME280;40029;58.708;50.190;2022-09-09T00:07:52;100108.94;;;7.44;53.78
54122;BME280;40029;58.708;50.190;2022-09-09T00:10:32;100110.00;;;7.34;53.60
54122;BME280;40029;58.708;50.190;2022-09-09T00:16:16;100122.00;;;7.38;53.38
54122;BME280;40029;58.708;50.190;2022-09-09T00:19:23;100124.50;;;7.44;53.14
54122;BME280;40029;58.708;50.190;2022-09-09T00:22:25;100130.69;;;7.37;53.14
54122;BME280;40029;58.708;50.190;2022-09-09T00:25:08;100120.63;;;7.20;53.40
54122;BME280;40029;58.708;50.190;2022-09-09T00:27:50;100136.19;;;7.20;53.80
54122;BME280;40029;58.708;50.190;2022-09-09T00:30:27;100134.38;;;7.23;53.51
54122;BME280;40029;58.708;50.190;2022-09-09T00:33:10;100130.19;;;7.16;53.61
54122;BME280;40029;58.708;50.190;2022-09-09T00:35:51;100135.31;;;7.19;53.65
54122;BME280;40029;58.708;50.190;2022-09-09T00:38:35;100130.19;;;7.16;53.59
54122;BME280;40029;58.708;50.190;2022-09-09T00:41:29;100136.19;;;7.20;53.68
54122;BME280;40029;58.708;50.190;2022-09-09T00:44:28;100136.19;;;7.20;53.58
54122;BME280;40029;58.708;50.190;2022-09-09T00:58:21;100140.72;;;7.07;53.32
54122;BME280;40029;58.708;50.190;2022-09-09T01:00:58;100142.38;;;7.11;53.39
54122;BME280;40029;58.708;50.190;2022-09-09T01:09:18;100145.03;;;7.08;52.91
54122;BME280;40029;58.708;50.190;2022-09-09T01:17:26;100153.72;;;7.06;53.23
54122;BME280;40029;58.708;50.190;2022-09-09T01:20:23;100158.19;;;6.97;53.16
54122;BME280;40029;58.708;50.190;2022-09-09T01:26:37;100156.59;;;6.89;53.04
54122;BME280;40029;58.708;50.190;2022-09-09T01:29:15;100148.13;;;6.78;52.94
54122;BME280;40029;58.708;50.190;2022-09-09T01:31:55;100163.56;;;6.84;52.53
54122;BME280;40029;58.708;50.190;2022-09-09T01:34:38;100158.63;;;6.70;52.37
54122;BME280;40029;58.708;50.190;2022-09-09T01:37:12;100158.69;;;6.65;52.79
54122;BME280;40029;58.708;50.190;2022-09-09T01:39:44;100166.56;;;6.59;52.94
54122;BME280;40029;58.708;50.190;2022-09-09T01:42:18;100166.59;;;6.56;52.63
54122;BME280;40029;58.708;50.190;2022-09-09T01:44:50;100158.16;;;6.43;52.64
54122;BME280;40029;58.708;50.190;2022-09-09T01:47:21;100173.59;;;6.49;52.50
54122;BME280;40029;58.708;50.190;2022-09-09T01:50:16;100169.31;;;6.50;52.55
54122;BME280;40029;58.708;50.190;2022-09-09T01:52:52;100179.72;;;6.44;53.16
54122;BME280;40029;58.708;50.190;2022-09-09T01:55:30;100180.63;;;6.41;53.20
54122;BME280;40029;58.708;50.190;2022-09-09T01:58:34;100183.13;;;6.47;53.42
54122;BME280;40029;58.708;50.190;2022-09-09T02:03:56;100179.09;;;6.30;53.20
54122;BME280;40029;58.708;50.190;2022-09-09T02:06:33;100183.38;;;6.31;53.07
54122;BME280;40029;58.708;50.190;2022-09-09T02:09:15;100185.94;;;6.34;53.34
54122;BME280;40029;58.708;50.190;2022-09-09T02:11:54;100155.19;;;6.12;53.56
54122;BME280;40029;58.708;50.190;2022-09-09T02:14:42;100195.34;;;6.38;53.05
54122;BME280;40029;58.708;50.190;2022-09-09T02:17:25;100194.50;;;6.36;52.97
54122;BME280;40029;58.708;50.190;2022-09-09T02:20:13;100182.44;;;6.35;53.24
54122;BME280;40029;58.708;50.190;2022-09-09T02:23:12;100187.66;;;6.33;52.84
54122;BME280;40029;58.708;50.190;2022-09-09T02:25:44;100192.84;;;6.33;53.37
54122;BME280;40029;58.708;50.190;2022-09-09T02:28:28;100204.03;;;6.34;53.34
54122;BME280;40029;58.708;50.190;2022-09-09T02:31:00;100206.69;;;6.28;53.49
54122;BME280;40029;58.708;50.190;2022-09-09T02:33:46;100207.47;;;6.34;53.16
54122;BME280;40029;58.708;50.190;2022-09-09T02:36:19;100204.88;;;6.34;53.16
54122;BME280;40029;58.708;50.190;2022-09-09T02:38:53;100203.94;;;6.40;53.04
54122;BME280;40029;58.708;50.190;2022-09-09T02:41:32;100202.28;;;6.36;53.51
54122;BME280;40029;58.708;50.190;2022-09-09T02:44:15;100203.97;;;6.37;53.77
54122;BME280;40029;58.708;50.190;2022-09-09T02:53:07;100207.41;;;6.39;53.53
54122;BME280;40029;58.708;50.190;2022-09-09T02:55:46;100217.72;;;6.42;53.54
54122;BME280;40029;58.708;50.190;2022-09-09T02:58:21;100211.81;;;6.32;53.43
54122;BME280;40029;58.708;50.190;2022-09-09T03:01:03;100212.63;;;6.36;53.50
54122;BME280;40029;58.708;50.190;2022-09-09T03:03:35;100202.34;;;6.31;53.86
54122;BME280;40029;58.708;50.190;2022-09-09T03:06:12;100212.63;;;6.36;53.71
54122;BME280;40029;58.708;50.190;2022-09-09T03:08:44;100219.47;;;6.40;53.75
54122;BME280;40029;58.708;50.190;2022-09-09T03:11:17;100209.91;;;6.45;53.72
54122;BME280;40029;58.708;50.190;2022-09-09T03:13:48;100225.38;;;6.49;53.54
54122;BME280;40029;58.708;50.190;2022-09-09T03:16:20;100215.84;;;6.51;53.79
54122;BME280;40029;58.708;50.190;2022-09-09T03:18:54;100233.56;;;6.79;52.93
54122;BME280;40029;58.708;50.190;2022-09-09T03:21:25;100218.22;;;6.67;52.60
54122;BME280;40029;58.708;50.190;2022-09-09T03:23:58;100236.22;;;6.74;53.08
54122;BME280;40029;58.708;50.190;2022-09-09T03:26:29;100237.22;;;6.66;52.78
54122;BME280;40029;58.708;50.190;2022-09-09T03:29:01;100238.75;;;6.79;52.93
54122;BME280;40029;58.708;50.190;2022-09-09T03:31:34;100240.41;;;6.83;52.72
54122;BME280;40029;58.708;50.190;2022-09-09T03:34:07;100235.38;;;6.75;53.29
54122;BME280;40029;58.708;50.190;2022-09-09T03:36:40;100237.81;;;6.85;52.83
54122;BME280;40029;58.708;50.190;2022-09-09T03:39:12;100230.81;;;6.90;52.42
54122;BME280;40029;58.708;50.190;2022-09-09T03:41:45;100239.41;;;6.93;52.72
54122;BME280;40029;58.708;50.190;2022-09-09T03:44:19;100231.66;;;6.92;52.51
54122;BME280;40029;58.708;50.190;2022-09-09T03:46:51;100243.69;;;6.94;52.60
54122;BME280;40029;58.708;50.190;2022-09-09T03:49:22;100233.19;;;7.04;52.36
54122;BME280;40029;58.708;50.190;2022-09-09T03:51:57;100243.44;;;7.11;52.20
54122;BME280;40029;58.708;50.190;2022-09-09T03:54:29;100250.16;;;7.23;51.81
54122;BME280;40029;58.708;50.190;2022-09-09T03:57:00;100244.22;;;7.16;51.71
54122;BME280;40029;58.708;50.190;2022-09-09T03:59:32;100242.59;;;7.11;52.09
54122;BME280;40029;58.708;50.190;2022-09-09T04:02:03;100248.59;;;7.14;52.04
54122;BME280;40029;58.708;50.190;2022-09-09T04:04:34;100253.56;;;7.26;51.78
54122;BME280;40029;58.708;50.190;2022-09-09T04:07:05;100254.16;;;7.41;51.63
54122;BME280;40029;58.708;50.190;2022-09-09T04:09:39;100248.94;;;7.42;51.29
54122;BME280;40029;58.708;50.190;2022-09-09T04:12:10;100238.56;;;7.44;50.59
54122;BME280;40029;58.708;50.190;2022-09-09T04:14:44;100254.81;;;7.54;50.76
54122;BME280;40029;58.708;50.190;2022-09-09T04:17:15;100264.13;;;7.65;50.75
54122;BME280;40029;58.708;50.190;2022-09-09T04:19:46;100269.31;;;7.65;50.79
54122;BME280;40029;58.708;50.190;2022-09-09T04:22:18;100263.00;;;7.79;50.31
54122;BME280;40029;58.708;50.190;2022-09-09T04:24:49;100266.31;;;7.85;50.31
54122;BME280;40029;58.708;50.190;2022-09-09T04:27:22;100237.25;;;7.68;50.18
54122;BME280;40029;58.708;50.190;2022-09-09T04:29:53;100272.38;;;7.86;50.25
54122;BME280;40029;58.708;50.190;2022-09-09T04:32:25;100264.44;;;7.95;50.17
54122;BME280;40029;58.708;50.190;2022-09-09T04:34:59;100266.19;;;7.93;50.36
54122;BME280;40029;58.708;50.190;2022-09-09T04:37:31;100270.25;;;8.06;49.36
54122;BME280;40029;58.708;50.190;2022-09-09T04:40:03;100273.69;;;8.08;49.30
54122;BME280;40029;58.708;50.190;2022-09-09T04:42:36;100263.25;;;8.10;49.53
54122;BME280;40029;58.708;50.190;2022-09-09T04:45:08;100280.56;;;8.09;49.55
54122;BME280;40029;58.708;50.190;2022-09-09T04:47:42;100273.53;;;8.16;49.59
54122;BME280;40029;58.708;50.190;2022-09-09T04:50:13;100245.28;;;8.00;49.38
54122;BME280;40029;58.708;50.190;2022-09-09T04:52:44;100281.78;;;8.38;49.18
54122;BME280;40029;58.708;50.190;2022-09-09T04:55:16;100285.06;;;8.46;48.88
54122;BME280;40029;58.708;50.190;2022-09-09T04:57:49;100255.38;;;8.14;49.80
54122;BME280;40029;58.708;50.190;2022-09-09T05:00:20;100284.38;;;8.35;49.59
54122;BME280;40029;58.708;50.190;2022-09-09T05:02:52;100285.06;;;8.46;49.57
54122;BME280;40029;58.708;50.190;2022-09-09T05:05:23;100290.97;;;8.52;49.41
54122;BME280;40029;58.708;50.190;2022-09-09T05:07:54;100290.81;;;8.60;49.55
54122;BME280;40029;58.708;50.190;2022-09-09T05:10:31;100285.47;;;8.66;49.03
54122;BME280;40029;58.708;50.190;2022-09-09T05:13:03;100295.06;;;8.64;49.30
54122;BME280;40029;58.708;50.190;2022-09-09T05:15:36;100289.72;;;8.70;48.87
54122;BME280;40029;58.708;50.190;2022-09-09T05:18:07;100290.66;;;8.68;49.37
54122;BME280;40029;58.708;50.190;2022-09-09T05:20:38;100289.31;;;8.89;48.43
54122;BME280;40029;58.708;50.190;2022-09-09T05:23:09;100296.94;;;8.96;48.68
54122;BME280;40029;58.708;50.190;2022-09-09T05:25:53;100294.03;;;9.10;48.24
54122;BME280;40029;58.708;50.190;2022-09-09T05:28:25;100292.78;;;9.25;48.12
54122;BME280;40029;58.708;50.190;2022-09-09T05:31:03;100292.91;;;9.20;47.98
54122;BME280;40029;58.708;50.190;2022-09-09T05:33:37;100299.72;;;9.24;47.53
54122;BME280;40029;58.708;50.190;2022-09-09T05:36:13;100298.84;;;9.25;47.16
54122;BME280;40029;58.708;50.190;2022-09-09T05:38:46;100305.03;;;9.20;47.97
54122;BME280;40029;58.708;50.190;2022-09-09T05:41:18;100301.13;;;9.38;47.82
54122;BME280;40029;58.708;50.190;2022-09-09T05:43:51;100297.16;;;9.59;46.94
54122;BME280;40029;58.708;50.190;2022-09-09T05:46:23;100299.56;;;9.66;47.04
54122;BME280;40029;58.708;50.190;2022-09-09T05:48:56;100293.56;;;9.64;47.16
54122;BME280;40029;58.708;50.190;2022-09-09T05:51:33;100297.56;;;9.76;46.26
54122;BME280;40029;58.708;50.190;2022-09-09T05:54:12;100298.06;;;9.90;46.62
54122;BME280;40029;58.708;50.190;2022-09-09T05:56:49;100297.25;;;9.88;46.40
54122;BME280;40029;58.708;50.190;2022-09-09T05:59:21;100304.72;;;10.00;46.28
54122;BME280;40029;58.708;50.190;2022-09-09T06:01:56;100301.47;;;9.92;45.15
54122;BME280;40029;58.708;50.190;2022-09-09T06:04:36;100303.69;;;10.08;45.49
54122;BME280;40029;58.708;50.190;2022-09-09T06:07:08;100302.38;;;10.22;45.94
54122;BME280;40029;58.708;50.190;2022-09-09T06:09:40;100301.59;;;10.20;45.38
54122;BME280;40029;58.708;50.190;2022-09-09T06:12:11;100293.34;;;10.37;45.21
54122;BME280;40029;58.708;50.190;2022-09-09T06:14:43;100305.25;;;10.44;45.00
54122;BME280;40029;58.708;50.190;2022-09-09T06:17:14;100308.16;;;10.65;44.14
54122;BME280;40029;58.708;50.190;2022-09-09T06:19:45;100298.50;;;10.68;43.80
54122;BME280;40029;58.708;50.190;2022-09-09T06:22:16;100304.19;;;10.81;43.62
54122;BME280;40029;58.708;50.190;2022-09-09T06:24:47;100303.50;;;10.74;43.69
54122;BME280;40029;58.708;50.190;2022-09-09T06:27:18;100314.66;;;10.80;43.38
54122;BME280;40029;58.708;50.190;2022-09-09T06:29:50;100310.88;;;10.90;43.08
54122;BME280;40029;58.708;50.190;2022-09-09T06:32:21;100309.94;;;10.92;42.83
54122;BME280;40029;58.708;50.190;2022-09-09T06:34:54;100267.69;;;10.81;41.87
54122;BME280;40029;58.708;50.190;2022-09-09T06:37:25;100314.81;;;11.03;41.51
54122;BME280;40029;58.708;50.190;2022-09-09T06:39:57;100303.81;;;11.21;41.51
54122;BME280;40029;58.708;50.190;2022-09-09T06:42:28;100321.00;;;11.27;41.29
54122;BME280;40029;58.708;50.190;2022-09-09T06:45:09;100325.38;;;11.26;40.24
54122;BME280;40029;58.708;50.190;2022-09-09T06:47:55;100320.56;;;11.41;40.34
54122;BME280;40029;58.708;50.190;2022-09-09T06:50:26;100318.00;;;11.66;39.46
54122;BME280;40029;58.708;50.190;2022-09-09T06:52:57;100313.03;;;11.58;39.76
54122;BME280;40029;58.708;50.190;2022-09-09T06:55:28;100295.88;;;11.76;38.86
54122;BME280;40029;58.708;50.190;2022-09-09T06:57:59;100303.50;;;11.84;39.53
54122;BME280;40029;58.708;50.190;2022-09-09T07:00:31;100315.97;;;12.00;38.21
54122;BME280;40029;58.708;50.190;2022-09-09T07:03:02;100310.63;;;12.04;37.34
54122;BME280;40029;58.708;50.190;2022-09-09T07:05:34;100311.06;;;12.16;37.60
54122;BME280;40029;58.708;50.190;2022-09-09T07:08:05;100276.19;;;11.92;36.37
54122;BME280;40029;58.708;50.190;2022-09-09T07:10:36;100307.94;;;12.07;36.26
54122;BME280;40029;58.708;50.190;2022-09-09T07:13:07;100309.94;;;11.98;36.48
54122;BME280;40029;58.708;50.190;2022-09-09T07:15:40;100316.81;;;12.01;36.02
54122;BME280;40029;58.708;50.190;2022-09-09T07:18:12;100307.53;;;12.17;35.38
54122;BME280;40029;58.708;50.190;2022-09-09T07:20:43;100314.56;;;12.15;34.92
54122;BME280;40029;58.708;50.190;2022-09-09T07:23:14;100304.22;;;12.12;34.40
54122;BME280;40029;58.708;50.190;2022-09-09T07:25:45;100309.44;;;12.12;34.69
54122;BME280;40029;58.708;50.190;2022-09-09T07:28:20;100307.75;;;12.35;34.07
54122;BME280;40029;58.708;50.190;2022-09-09T07:30:57;100304.31;;;12.34;34.60
54122;BME280;40029;58.708;50.190;2022-09-09T07:33:30;100300.78;;;12.59;34.22
54122;BME280;40029;58.708;50.190;2022-09-09T07:36:05;100304.63;;;12.72;32.93
54122;BME280;40029;58.708;50.190;2022-09-09T07:38:42;100307.38;;;12.91;33.35
54122;BME280;40029;58.708;50.190;2022-09-09T07:41:23;100307.34;;;13.14;32.51
54122;BME280;40029;58.708;50.190;2022-09-09T07:43:55;100272.97;;;12.80;32.51
54122;BME280;40029;58.708;50.190;2022-09-09T07:46:27;100320.81;;;13.04;32.40
54122;BME280;40029;58.708;50.190;2022-09-09T07:48:58;100319.19;;;13.01;32.36
54122;BME280;40029;58.708;50.190;2022-09-09T07:51:35;100319.78;;;12.86;32.13
54122;BME280;40029;58.708;50.190;2022-09-09T07:54:10;100313.91;;;13.02;31.39
54122;BME280;40029;58.708;50.190;2022-09-09T07:56:43;100311.81;;;12.89;31.84
54122;BME280;40029;58.708;50.190;2022-09-09T07:59:16;100310.03;;;13.13;31.03
54122;BME280;40029;58.708;50.190;2022-09-09T08:01:51;100307.97;;;13.43;30.60
54122;BME280;40029;58.708;50.190;2022-09-09T08:04:28;100283.47;;;13.44;30.61
54122;BME280;40029;58.708;50.190;2022-09-09T08:07:00;100311.91;;;13.73;30.87
54122;BME280;40029;58.708;50.190;2022-09-09T08:09:33;100317.78;;;13.58;30.41
54122;BME280;40029;58.708;50.190;2022-09-09T08:12:11;100306.19;;;13.43;30.35
54122;BME280;40029;58.708;50.190;2022-09-09T08:14:43;100320.50;;;13.13;29.71
54122;BME280;40029;58.708;50.190;2022-09-09T08:17:15;100329.56;;;13.04;30.24
54122;BME280;40029;58.708;50.190;2022-09-09T08:19:47;100249.47;;;12.56;30.37
54122;BME280;40029;58.708;50.190;2022-09-09T08:22:23;100323.78;;;13.18;31.14
54122;BME280;40029;58.708;50.190;2022-09-09T08:24:55;100318.78;;;13.34;30.19
54122;BME280;40029;58.708;50.190;2022-09-09T08:27:27;100316.53;;;13.67;30.46
54122;BME280;40029;58.708;50.190;2022-09-09T08:29:59;100311.25;;;13.68;30.15
54122;BME280;40029;58.708;50.190;2022-09-09T08:32:33;100310.16;;;13.94;29.12
54122;BME280;40029;58.708;50.190;2022-09-09T08:35:06;100324.81;;;13.78;29.43
54122;BME280;40029;58.708;50.190;2022-09-09T08:37:37;100329.63;;;13.67;29.34
54122;BME280;40029;58.708;50.190;2022-09-09T08:40:18;100325.38;;;13.44;28.79
54122;BME280;40029;58.708;50.190;2022-09-09T08:42:53;100323.31;;;13.30;29.10
54122;BME280;40029;58.708;50.190;2022-09-09T08:45:31;100326.50;;;13.37;28.53
54122;BME280;40029;58.708;50.190;2022-09-09T08:48:09;100323.91;;;13.37;29.65
54122;BME280;40029;58.708;50.190;2022-09-09T08:50:45;100329.25;;;13.56;29.88
54122;BME280;40029;58.708;50.190;2022-09-09T08:53:27;100323.97;;;13.78;29.10
54122;BME280;40029;58.708;50.190;2022-09-09T08:56:09;100326.13;;;13.88;29.95
54122;BME280;40029;58.708;50.190;2022-09-09T08:58:52;100321.91;;;14.05;29.23
54122;BME280;40029;58.708;50.190;2022-09-09T09:04:22;100321.59;;;13.92;28.91
54122;BME280;40029;58.708;50.190;2022-09-09T09:12:25;100311.38;;;14.06;27.16
54122;BME280;40029;58.708;50.190;2022-09-09T09:14:59;100328.72;;;14.09;27.37
54122;BME280;40029;58.708;50.190;2022-09-09T09:17:35;100315.28;;;14.16;27.41
54122;BME280;40029;58.708;50.190;2022-09-09T09:20:16;100323.81;;;14.21;27.86
54122;BME280;40029;58.708;50.190;2022-09-09T09:22:51;100320.97;;;14.26;28.37
54122;BME280;40029;58.708;50.190;2022-09-09T09:25:31;100320.63;;;14.34;28.63
54122;BME280;40029;58.708;50.190;2022-09-09T09:28:24;100318.94;;;14.33;27.01
54122;BME280;40029;58.708;50.190;2022-09-09T09:31:08;100329.44;;;14.33;25.93
54122;BME280;40029;58.708;50.190;2022-09-09T09:33:49;100319.56;;;14.58;25.70
54122;BME280;40029;58.708;50.190;2022-09-09T09:39:27;100324.69;;;14.80;24.77
54122;BME280;40029;58.708;50.190;2022-09-09T09:42:13;100324.03;;;14.75;26.12
54122;BME280;40029;58.708;50.190;2022-09-09T09:44:46;100332.69;;;14.58;26.31
54122;BME280;40029;58.708;50.190;2022-09-09T09:47:23;100325.47;;;14.43;27.04
54122;BME280;40029;58.708;50.190;2022-09-09T09:50:19;100324.66;;;14.22;29.34
54122;BME280;40029;58.708;50.190;2022-09-09T09:52:57;100322.00;;;14.03;30.22
54122;BME280;40029;58.708;50.190;2022-09-09T09:55:33;100323.31;;;13.72;29.89
54122;BME280;40029;58.708;50.190;2022-09-09T09:58:15;100325.41;;;13.64;29.49
54122;BME280;40029;58.708;50.190;2022-09-09T10:00:48;100313.72;;;13.51;30.32
54122;BME280;40029;58.708;50.190;2022-09-09T10:03:28;100323.50;;;13.68;29.89
54122;BME280;40029;58.708;50.190;2022-09-09T10:06:00;100323.66;;;13.85;29.91
54122;BME280;40029;58.708;50.190;2022-09-09T10:08:34;100317.72;;;14.21;29.04
54122;BME280;40029;58.708;50.190;2022-09-09T10:14:29;100315.31;;;14.93;26.38
54122;BME280;40029;58.708;50.190;2022-09-09T10:17:28;100316.00;;;14.97;27.33
54122;BME280;40029;58.708;50.190;2022-09-09T10:20:29;100321.97;;;15.00;27.14
54122;BME280;40029;58.708;50.190;2022-09-09T10:23:16;100311.25;;;14.86;27.26
54122;BME280;40029;58.708;50.190;2022-09-09T10:32:09;100281.50;;;14.87;24.21
54122;BME280;40029;58.708;50.190;2022-09-09T10:34:56;100306.19;;;15.19;23.70
54122;BME280;40029;58.708;50.190;2022-09-09T10:40:32;100310.34;;;14.87;25.09
54122;BME280;40029;58.708;50.190;2022-09-09T10:45:55;100317.44;;;14.66;26.89
54122;BME280;40029;58.708;50.190;2022-09-09T10:54:25;100314.38;;;14.17;27.50
54122;BME280;40029;58.708;50.190;2022-09-09T10:57:10;100242.78;;;13.57;28.88
54122;BME280;40029;58.708;50.190;2022-09-09T10:59:47;100306.69;;;13.73;29.36
54122;BME280;40029;58.708;50.190;2022-09-09T11:02:28;100325.72;;;13.77;29.53
54122;BME280;40029;58.708;50.190;2022-09-09T11:05:16;100330.75;;;13.61;29.59
54122;BME280;40029;58.708;50.190;2022-09-09T11:16:32;100315.41;;;14.13;28.46
54122;BME280;40029;58.708;50.190;2022-09-09T11:22:14;100322.88;;;14.22;28.62
54122;BME280;40029;58.708;50.190;2022-09-09T11:24:52;100318.81;;;14.36;27.98
54122;BME280;40029;58.708;50.190;2022-09-09T11:30:20;100312.13;;;14.49;27.75
54122;BME280;40029;58.708;50.190;2022-09-09T11:35:47;100316.22;;;14.55;27.49
54122;BME280;40029;58.708;50.190;2022-09-09T11:38:29;100312.41;;;14.62;27.47
54122;BME280;40029;58.708;50.190;2022-09-09T11:41:07;100312.91;;;14.51;27.26
54122;BME280;40029;58.708;50.190;2022-09-09T11:43:47;100313.06;;;14.67;27.35
54122;BME280;40029;58.708;50.190;2022-09-09T11:46:34;100304.81;;;14.93;26.74
54122;BME280;40029;58.708;50.190;2022-09-09T11:49:26;100308.81;;;15.19;26.26
54122;BME280;40029;58.708;50.190;2022-09-09T11:51:58;100274.63;;;15.21;26.72
54122;BME280;40029;58.708;50.190;2022-09-09T11:54:32;100311.88;;;15.98;26.79
54122;BME280;40029;58.708;50.190;2022-09-09T11:57:03;100306.59;;;16.65;26.20
54122;BME280;40029;58.708;50.190;2022-09-09T11:59:35;100306.69;;;17.27;24.68
54122;BME280;40029;58.708;50.190;2022-09-09T12:02:18;100302.16;;;17.74;22.17
54122;BME280;40029;58.708;50.190;2022-09-09T12:05:09;100308.44;;;18.31;22.26
54122;BME280;40029;58.708;50.190;2022-09-09T12:07:56;100309.50;;;18.71;20.28
54122;BME280;40029;58.708;50.190;2022-09-09T12:10:39;100307.88;;;18.83;20.47
54122;BME280;40029;58.708;50.190;2022-09-09T12:13:17;100328.31;;;18.08;22.17
54122;BME280;40029;58.708;50.190;2022-09-09T12:15:54;100317.59;;;17.05;24.21
54122;BME280;40029;58.708;50.190;2022-09-09T12:21:14;100325.69;;;15.50;26.64
54122;BME280;40029;58.708;50.190;2022-09-09T12:26:33;100324.91;;;15.12;28.48
54122;BME280;40029;58.708;50.190;2022-09-09T12:29:12;100320.28;;;14.99;27.80
54122;BME280;40029;58.708;50.190;2022-09-09T12:34:39;100318.63;;;14.78;27.40
54122;BME280;40029;58.708;50.190;2022-09-09T12:39:55;100321.97;;;14.82;28.19
54122;BME280;40029;58.708;50.190;2022-09-09T12:42:27;100328.63;;;14.89;27.85
54122;BME280;40029;58.708;50.190;2022-09-09T12:45:00;100321.84;;;14.85;27.71
54122;BME280;40029;58.708;50.190;2022-09-09T12:50:33;100336.66;;;14.46;29.60
54122;BME280;40029;58.708;50.190;2022-09-09T12:53:11;100344.03;;;14.18;31.80
54122;BME280;40029;58.708;50.190;2022-09-09T12:55:56;100363.09;;;13.60;34.75
54122;BME280;40029;58.708;50.190;2022-09-09T12:58:28;100341.47;;;13.33;35.26
54122;BME280;40029;58.708;50.190;2022-09-09T13:01:04;100332.25;;;13.24;35.67
54122;BME280;40029;58.708;50.190;2022-09-09T13:03:42;100334.34;;;13.15;37.00
54122;BME280;40029;58.708;50.190;2022-09-09T13:06:30;100332.88;;;13.08;37.55
54122;BME280;40029;58.708;50.190;2022-09-09T13:09:02;100321.06;;;12.97;36.87
54122;BME280;40029;58.708;50.190;2022-09-09T13:11:39;100329.78;;;12.98;36.97
54122;BME280;40029;58.708;50.190;2022-09-09T13:14:28;100330.31;;;13.06;37.02
54122;BME280;40029;58.708;50.190;2022-09-09T13:17:02;100339.28;;;13.00;36.84
54122;BME280;40029;58.708;50.190;2022-09-09T13:19:38;100292.34;;;12.74;37.82
54122;BME280;40029;58.708;50.190;2022-09-09T13:22:38;100328.00;;;12.98;38.56
54122;BME280;40029;58.708;50.190;2022-09-09T13:27:52;100328.28;;;12.91;39.46
54122;BME280;40029;58.708;50.190;2022-09-09T13:33:21;100329.84;;;12.96;39.35
54122;BME280;40029;58.708;50.190;2022-09-09T13:35:56;100330.03;;;12.92;40.14
54122;BME280;40029;58.708;50.190;2022-09-09T13:38:29;100336.03;;;12.94;39.44
54122;BME280;40029;58.708;50.190;2022-09-09T13:41:04;100296.59;;;12.76;39.23
54122;BME280;40029;58.708;50.190;2022-09-09T13:43:43;100310.72;;;12.94;39.10
54122;BME280;40029;58.708;50.190;2022-09-09T13:46:34;100332.03;;;13.07;40.09
54122;BME280;40029;58.708;50.190;2022-09-09T13:51:44;100325.38;;;13.20;39.23
54122;BME280;40029;58.708;50.190;2022-09-09T13:54:19;100332.88;;;13.08;39.14
54122;BME280;40029;58.708;50.190;2022-09-09T13:56:51;100329.22;;;13.12;39.12
54122;BME280;40029;58.708;50.190;2022-09-09T13:59:22;100297.78;;;12.91;39.42
54122;BME280;40029;58.708;50.190;2022-09-09T14:01:54;100324.13;;;13.09;38.93
54122;BME280;40029;58.708;50.190;2022-09-09T14:04:25;100336.34;;;13.08;38.93
54122;BME280;40029;58.708;50.190;2022-09-09T14:06:56;100331.84;;;13.12;38.07
54122;BME280;40029;58.708;50.190;2022-09-09T14:09:28;100335.31;;;13.12;37.36
54122;BME280;40029;58.708;50.190;2022-09-09T14:12:01;100334.47;;;13.12;37.36
54122;BME280;40029;58.708;50.190;2022-09-09T14:14:32;100342.13;;;13.16;37.35
54122;BME280;40029;58.708;50.190;2022-09-09T14:17:04;100342.50;;;13.07;36.59
54122;BME280;40029;58.708;50.190;2022-09-09T14:19:35;100343.53;;;13.03;36.60
54122;BME280;40029;58.708;50.190;2022-09-09T14:22:07;100346.75;;;12.88;36.92
54122;BME280;40029;58.708;50.190;2022-09-09T14:24:38;100304.31;;;12.58;36.48
54122;BME280;40029;58.708;50.190;2022-09-09T14:27:09;100340.81;;;12.83;36.99
54122;BME280;40029;58.708;50.190;2022-09-09T14:29:40;100348.78;;;12.80;36.94
54122;BME280;40029;58.708;50.190;2022-09-09T14:32:12;100348.50;;;12.87;36.76
54122;BME280;40029;58.708;50.190;2022-09-09T14:34:43;100346.91;;;12.83;36.64
54122;BME280;40029;58.708;50.190;2022-09-09T14:37:14;100345.16;;;12.84;37.09
54122;BME280;40029;58.708;50.190;2022-09-09T14:39:45;100336.00;;;12.72;36.78
54122;BME280;40029;58.708;50.190;2022-09-09T14:42:17;100350.78;;;12.73;36.83
54122;BME280;40029;58.708;50.190;2022-09-09T14:44:49;100355.41;;;12.66;37.54
54122;BME280;40029;58.708;50.190;2022-09-09T14:47:20;100353.81;;;12.62;37.02
54122;BME280;40029;58.708;50.190;2022-09-09T14:49:53;100353.00;;;12.60;37.21
54122;BME280;40029;58.708;50.190;2022-09-09T14:52:24;100320.03;;;12.33;37.21
54122;BME280;40029;58.708;50.190;2022-09-09T14:54:56;100360.44;;;12.47;37.64
54122;BME280;40029;58.708;50.190;2022-09-09T14:57:27;100362.44;;;12.41;37.66
54122;BME280;40029;58.708;50.190;2022-09-09T14:59:58;100354.75;;;12.36;37.66
54122;BME280;40029;58.708;50.190;2022-09-09T15:02:29;100365.41;;;12.30;37.14
54122;BME280;40029;58.708;50.190;2022-09-09T15:05:00;100322.25;;;11.95;37.55
54122;BME280;40029;58.708;50.190;2022-09-09T15:07:34;100358.66;;;12.24;37.50
54122;BME280;40029;58.708;50.190;2022-09-09T15:10:05;100359.78;;;12.17;37.98
54122;BME280;40029;58.708;50.190;2022-09-09T15:12:37;100356.31;;;12.17;37.79
54122;BME280;40029;58.708;50.190;2022-09-09T15:15:09;100364.50;;;12.06;37.96
54122;BME280;40029;58.708;50.190;2022-09-09T15:17:40;100364.56;;;12.05;38.00
54122;BME280;40029;58.708;50.190;2022-09-09T15:20:11;100367.13;;;12.06;38.88